sensor_id;sensor_type;location;lat;lon;timestamp;temperature;humidity
20654;DHT22;21083;50.898;4.902;2022-07-29T00:00:19;21.40;99.90
20654;DHT22;21083;50.898;4.902;2022-07-29T00:02:46;21.40;99.90
20654;DHT22;21083;50.898;4.902;2022-07-29T00:05:13;21.30;99.90
20654;DHT22;21083;50.898;4.902;2022-07-29T00:07:40;21.30;99.90
20654;DHT22;21083;50.898;4.902;2022-07-29T00:10:09;21.30;99.90
20654;DHT22;21083;50.898;4.902;2022-07-29T00:12:36;21.30;99.90
20654;DHT22;21083;50.898;4.902;2022-07-29T00:15:04;21.30;99.90
20654;DHT22;21083;50.898;4.902;2022-07-29T00:17:31;21.20;99.90
20654;DHT22;21083;50.898;4.902;2022-07-29T00:19:59;21.20;99.90
20654;DHT22;21083;50.898;4.902;2022-07-29T00:22:26;21.20;99.90
20654;DHT22;21083;50.898;4.902;2022-07-29T00:24:53;21.10;99.90
20654;DHT22;21083;50.898;4.902;2022-07-29T00:27:22;21.10;99.90
20654;DHT22;21083;50.898;4.902;2022-07-29T00:29:49;21.10;99.90
20654;DHT22;21083;50.898;4.902;2022-07-29T00:32:15;21.10;99.90
20654;DHT22;21083;50.898;4.902;2022-07-29T00:34:42;21.00;99.90
20654;DHT22;21083;50.898;4.902;2022-07-29T00:37:27;21.10;99.90
20654;DHT22;21083;50.898;4.902;2022-07-29T00:39:54;21.00;99.90
20654;DHT22;21083;50.898;4.902;2022-07-29T00:42:22;21.00;99.90
20654;DHT22;21083;50.898;4.902;2022-07-29T00:44:49;20.90;99.90
20654;DHT22;21083;50.898;4.902;2022-07-29T00:47:16;20.90;99.90
20654;DHT22;21083;50.898;4.902;2022-07-29T00:49:43;20.90;99.90
20654;DHT22;21083;50.898;4.902;2022-07-29T00:52:11;20.90;99.90
20654;DHT22;21083;50.898;4.902;2022-07-29T00:54:39;20.90;99.90
20654;DHT22;21083;50.898;4.902;2022-07-29T00:57:07;20.80;99.90
20654;DHT22;21083;50.898;4.902;2022-07-29T00:59:35;20.80;99.90
20654;DHT22;21083;50.898;4.902;2022-07-29T01:02:03;20.70;99.90
20654;DHT22;21083;50.898;4.902;2022-07-29T01:04:31;20.70;99.90
20654;DHT22;21083;50.898;4.902;2022-07-29T01:06:58;20.60;99.90
20654;DHT22;21083;50.898;4.902;2022-07-29T01:09:27;20.60;99.90
20654;DHT22;21083;50.898;4.902;2022-07-29T01:11:55;20.70;99.90
20654;DHT22;21083;50.898;4.902;2022-07-29T01:14:22;20.60;99.90
20654;DHT22;21083;50.898;4.902;2022-07-29T01:16:54;20.60;99.90
20654;DHT22;21083;50.898;4.902;2022-07-29T01:19:47;20.50;99.90
20654;DHT22;21083;50.898;4.902;2022-07-29T01:22:25;20.50;99.90
20654;DHT22;21083;50.898;4.902;2022-07-29T01:25:25;20.50;99.90
20654;DHT22;21083;50.898;4.902;2022-07-29T01:28:19;20.50;99.90
20654;DHT22;21083;50.898;4.902;2022-07-29T01:30:51;20.40;99.90
20654;DHT22;21083;50.898;4.902;2022-07-29T01:33:21;20.40;99.90
20654;DHT22;21083;50.898;4.902;2022-07-29T01:36:12;20.40;99.90
20654;DHT22;21083;50.898;4.902;2022-07-29T01:38:42;20.40;99.90
20654;DHT22;21083;50.898;4.902;2022-07-29T01:41:12;20.30;99.90
20654;DHT22;21083;50.898;4.902;2022-07-29T01:43:44;20.40;99.90
20654;DHT22;21083;50.898;4.902;2022-07-29T01:46:21;20.40;99.90
20654;DHT22;21083;50.898;4.902;2022-07-29T01:48:55;20.40;99.90
20654;DHT22;21083;50.898;4.902;2022-07-29T01:51:27;20.30;99.90
20654;DHT22;21083;50.898;4.902;2022-07-29T01:54:02;20.20;99.90
20654;DHT22;21083;50.898;4.902;2022-07-29T01:56:31;20.20;99.90
20654;DHT22;21083;50.898;4.902;2022-07-29T01:58:59;20.20;99.90
20654;DHT22;21083;50.898;4.902;2022-07-29T02:01:29;20.10;99.90
20654;DHT22;21083;50.898;4.902;2022-07-29T02:03:57;20.00;99.90
20654;DHT22;21083;50.898;4.902;2022-07-29T02:06:26;20.00;99.90
20654;DHT22;21083;50.898;4.902;2022-07-29T02:08:55;20.00;99.90
20654;DHT22;21083;50.898;4.902;2022-07-29T02:11:24;20.10;99.90
20654;DHT22;21083;50.898;4.902;2022-07-29T02:13:52;20.10;99.90
20654;DHT22;21083;50.898;4.902;2022-07-29T02:16:21;20.20;99.90
20654;DHT22;21083;50.898;4.902;2022-07-29T02:18:53;20.20;99.90
20654;DHT22;21083;50.898;4.902;2022-07-29T02:21:25;20.10;99.90
20654;DHT22;21083;50.898;4.902;2022-07-29T02:23:54;20.10;99.90
20654;DHT22;21083;50.898;4.902;2022-07-29T02:26:24;20.10;99.90
20654;DHT22;21083;50.898;4.902;2022-07-29T02:28:55;20.00;99.90
20654;DHT22;21083;50.898;4.902;2022-07-29T02:31:25;20.10;99.90
20654;DHT22;21083;50.898;4.902;2022-07-29T02:33:54;20.00;99.90
20654;DHT22;21083;50.898;4.902;2022-07-29T02:36:23;20.00;99.90
20654;DHT22;21083;50.898;4.902;2022-07-29T02:38:51;20.10;99.90
20654;DHT22;21083;50.898;4.902;2022-07-29T02:41:24;20.00;99.90
20654;DHT22;21083;50.898;4.902;2022-07-29T02:43:56;20.00;99.90
20654;DHT22;21083;50.898;4.902;2022-07-29T02:46:29;20.00;99.90
20654;DHT22;21083;50.898;4.902;2022-07-29T02:49:04;20.00;99.90
20654;DHT22;21083;50.898;4.902;2022-07-29T02:51:40;20.00;99.90
20654;DHT22;21083;50.898;4.902;2022-07-29T02:54:09;20.00;99.90
20654;DHT22;21083;50.898;4.902;2022-07-29T02:56:38;20.00;99.90
20654;DHT22;21083;50.898;4.902;2022-07-29T02:59:09;20.00;99.90
20654;DHT22;21083;50.898;4.902;2022-07-29T03:01:40;19.90;99.90
20654;DHT22;21083;50.898;4.902;2022-07-29T03:04:11;19.90;99.90
20654;DHT22;21083;50.898;4.902;2022-07-29T03:06:39;19.90;99.90
20654;DHT22;21083;50.898;4.902;2022-07-29T03:09:08;19.80;99.90
20654;DHT22;21083;50.898;4.902;2022-07-29T03:11:36;19.80;99.90
20654;DHT22;21083;50.898;4.902;2022-07-29T03:14:04;19.70;99.90
20654;DHT22;21083;50.898;4.902;2022-07-29T03:16:33;19.70;99.90
20654;DHT22;21083;50.898;4.902;2022-07-29T03:19:02;19.60;99.90
20654;DHT22;21083;50.898;4.902;2022-07-29T03:21:31;19.60;99.90
20654;DHT22;21083;50.898;4.902;2022-07-29T03:23:58;19.50;99.90
20654;DHT22;21083;50.898;4.902;2022-07-29T03:26:25;19.40;99.90
20654;DHT22;21083;50.898;4.902;2022-07-29T03:28:52;19.30;99.90
20654;DHT22;21083;50.898;4.902;2022-07-29T03:31:19;19.30;99.90
20654;DHT22;21083;50.898;4.902;2022-07-29T03:33:46;19.30;99.90
20654;DHT22;21083;50.898;4.902;2022-07-29T03:36:13;19.20;99.90
20654;DHT22;21083;50.898;4.902;2022-07-29T03:38:42;19.10;99.90
20654;DHT22;21083;50.898;4.902;2022-07-29T03:41:11;19.10;99.90
20654;DHT22;21083;50.898;4.902;2022-07-29T03:43:41;19.00;99.90
20654;DHT22;21083;50.898;4.902;2022-07-29T03:46:09;19.00;99.90
20654;DHT22;21083;50.898;4.902;2022-07-29T03:48:40;18.80;99.90
20654;DHT22;21083;50.898;4.902;2022-07-29T03:51:09;18.80;99.90
20654;DHT22;21083;50.898;4.902;2022-07-29T03:53:36;18.80;99.90
20654;DHT22;21083;50.898;4.902;2022-07-29T03:56:06;18.80;99.90
20654;DHT22;21083;50.898;4.902;2022-07-29T03:58:34;18.80;99.90
20654;DHT22;21083;50.898;4.902;2022-07-29T04:01:02;18.80;99.90
20654;DHT22;21083;50.898;4.902;2022-07-29T04:03:29;18.80;99.90
20654;DHT22;21083;50.898;4.902;2022-07-29T04:06:01;18.70;99.90
20654;DHT22;21083;50.898;4.902;2022-07-29T04:08:28;18.60;99.90
20654;DHT22;21083;50.898;4.902;2022-07-29T04:10:55;18.60;99.90
20654;DHT22;21083;50.898;4.902;2022-07-29T04:13:23;18.70;99.90
20654;DHT22;21083;50.898;4.902;2022-07-29T04:15:50;18.70;99.90
20654;DHT22;21083;50.898;4.902;2022-07-29T04:18:17;18.70;99.90
20654;DHT22;21083;50.898;4.902;2022-07-29T04:20:45;18.70;99.90
20654;DHT22;21083;50.898;4.902;2022-07-29T04:23:11;18.60;99.90
20654;DHT22;21083;50.898;4.902;2022-07-29T04:25:38;18.60;99.90
20654;DHT22;21083;50.898;4.902;2022-07-29T04:28:06;18.60;99.90
20654;DHT22;21083;50.898;4.902;2022-07-29T04:30:36;18.50;99.90
20654;DHT22;21083;50.898;4.902;2022-07-29T04:33:05;18.50;99.90
20654;DHT22;21083;50.898;4.902;2022-07-29T04:35:35;18.50;99.90
20654;DHT22;21083;50.898;4.902;2022-07-29T04:38:02;18.60;99.90
20654;DHT22;21083;50.898;4.902;2022-07-29T04:40:29;18.50;99.90
20654;DHT22;21083;50.898;4.902;2022-07-29T04:42:56;18.50;99.90
20654;DHT22;21083;50.898;4.902;2022-07-29T04:45:23;18.40;99.90
20654;DHT22;21083;50.898;4.902;2022-07-29T04:47:51;18.40;99.90
20654;DHT22;21083;50.898;4.902;2022-07-29T04:50:18;18.40;99.90
20654;DHT22;21083;50.898;4.902;2022-07-29T04:52:45;18.40;99.90
20654;DHT22;21083;50.898;4.902;2022-07-29T04:55:12;18.40;99.90
20654;DHT22;21083;50.898;4.902;2022-07-29T04:57:39;18.40;99.90
20654;DHT22;21083;50.898;4.902;2022-07-29T05:00:07;18.40;99.90
20654;DHT22;21083;50.898;4.902;2022-07-29T05:02:34;18.30;99.90
20654;DHT22;21083;50.898;4.902;2022-07-29T05:05:03;18.20;99.90
20654;DHT22;21083;50.898;4.902;2022-07-29T05:07:30;18.20;99.90
20654;DHT22;21083;50.898;4.902;2022-07-29T05:09:56;18.30;99.90
20654;DHT22;21083;50.898;4.902;2022-07-29T05:12:23;18.20;99.90
20654;DHT22;21083;50.898;4.902;2022-07-29T05:14:50;18.20;99.90
20654;DHT22;21083;50.898;4.902;2022-07-29T05:17:17;18.20;99.90
20654;DHT22;21083;50.898;4.902;2022-07-29T05:19:44;18.20;99.90
20654;DHT22;21083;50.898;4.902;2022-07-29T05:22:12;18.20;99.90
20654;DHT22;21083;50.898;4.902;2022-07-29T05:24:39;18.10;99.90
20654;DHT22;21083;50.898;4.902;2022-07-29T05:27:06;18.10;99.90
20654;DHT22;21083;50.898;4.902;2022-07-29T05:29:33;18.10;99.90
20654;DHT22;21083;50.898;4.902;2022-07-29T05:32:00;18.20;99.90
20654;DHT22;21083;50.898;4.902;2022-07-29T05:34:27;18.20;99.90
20654;DHT22;21083;50.898;4.902;2022-07-29T05:36:54;18.30;99.90
20654;DHT22;21083;50.898;4.902;2022-07-29T05:39:22;18.20;99.90
20654;DHT22;21083;50.898;4.902;2022-07-29T05:41:49;18.20;99.90
20654;DHT22;21083;50.898;4.902;2022-07-29T05:44:16;18.20;99.90
20654;DHT22;21083;50.898;4.902;2022-07-29T05:46:43;18.30;99.90
20654;DHT22;21083;50.898;4.902;2022-07-29T05:49:10;18.30;99.90
20654;DHT22;21083;50.898;4.902;2022-07-29T05:51:37;18.30;99.90
20654;DHT22;21083;50.898;4.902;2022-07-29T05:54:04;18.40;99.90
20654;DHT22;21083;50.898;4.902;2022-07-29T05:56:32;18.40;99.90
20654;DHT22;21083;50.898;4.902;2022-07-29T05:58:59;18.40;99.90
20654;DHT22;21083;50.898;4.902;2022-07-29T06:01:26;18.40;99.90
20654;DHT22;21083;50.898;4.902;2022-07-29T06:03:53;18.40;99.90
20654;DHT22;21083;50.898;4.902;2022-07-29T06:06:20;18.50;99.90
20654;DHT22;21083;50.898;4.902;2022-07-29T06:08:47;18.60;99.90
20654;DHT22;21083;50.898;4.902;2022-07-29T06:11:14;18.60;99.90
20654;DHT22;21083;50.898;4.902;2022-07-29T06:13:43;18.60;99.90
20654;DHT22;21083;50.898;4.902;2022-07-29T06:16:10;18.70;99.90
20654;DHT22;21083;50.898;4.902;2022-07-29T06:18:37;18.70;99.90
20654;DHT22;21083;50.898;4.902;2022-07-29T06:21:07;18.70;99.90
20654;DHT22;21083;50.898;4.902;2022-07-29T06:23:35;18.80;99.90
20654;DHT22;21083;50.898;4.902;2022-07-29T06:26:03;18.80;99.90
20654;DHT22;21083;50.898;4.902;2022-07-29T06:28:30;18.90;99.90
20654;DHT22;21083;50.898;4.902;2022-07-29T06:30:58;19.00;99.90
20654;DHT22;21083;50.898;4.902;2022-07-29T06:33:25;19.10;99.90
20654;DHT22;21083;50.898;4.902;2022-07-29T06:35:52;19.20;99.90
20654;DHT22;21083;50.898;4.902;2022-07-29T06:38:20;19.20;99.90
20654;DHT22;21083;50.898;4.902;2022-07-29T06:40:47;19.30;99.90
20654;DHT22;21083;50.898;4.902;2022-07-29T06:43:32;19.40;99.90
20654;DHT22;21083;50.898;4.902;2022-07-29T06:46:04;19.40;99.90
20654;DHT22;21083;50.898;4.902;2022-07-29T06:48:32;19.50;99.90
20654;DHT22;21083;50.898;4.902;2022-07-29T06:51:00;19.50;99.90
20654;DHT22;21083;50.898;4.902;2022-07-29T06:53:27;19.60;99.90
20654;DHT22;21083;50.898;4.902;2022-07-29T06:55:54;19.80;99.90
20654;DHT22;21083;50.898;4.902;2022-07-29T06:58:21;19.90;99.90
20654;DHT22;21083;50.898;4.902;2022-07-29T07:00:48;20.00;99.90
20654;DHT22;21083;50.898;4.902;2022-07-29T07:03:17;20.10;99.90
20654;DHT22;21083;50.898;4.902;2022-07-29T07:05:45;20.10;99.90
20654;DHT22;21083;50.898;4.902;2022-07-29T07:08:13;20.20;99.90
20654;DHT22;21083;50.898;4.902;2022-07-29T07:10:41;20.40;99.90
20654;DHT22;21083;50.898;4.902;2022-07-29T07:13:08;20.50;99.90
20654;DHT22;21083;50.898;4.902;2022-07-29T07:15:35;20.50;99.90
20654;DHT22;21083;50.898;4.902;2022-07-29T07:18:02;20.60;99.90
20654;DHT22;21083;50.898;4.902;2022-07-29T07:20:31;20.70;99.90
20654;DHT22;21083;50.898;4.902;2022-07-29T07:22:58;20.70;99.90
20654;DHT22;21083;50.898;4.902;2022-07-29T07:25:25;20.80;99.90
20654;DHT22;21083;50.898;4.902;2022-07-29T07:27:52;20.90;99.90
20654;DHT22;21083;50.898;4.902;2022-07-29T07:30:19;21.00;99.90
20654;DHT22;21083;50.898;4.902;2022-07-29T07:32:46;21.00;99.90
20654;DHT22;21083;50.898;4.902;2022-07-29T07:35:13;21.10;99.90
20654;DHT22;21083;50.898;4.902;2022-07-29T07:37:42;21.10;99.90
20654;DHT22;21083;50.898;4.902;2022-07-29T07:40:10;21.20;99.90
20654;DHT22;21083;50.898;4.902;2022-07-29T07:42:38;21.20;99.90
20654;DHT22;21083;50.898;4.902;2022-07-29T07:45:06;21.20;99.90
20654;DHT22;21083;50.898;4.902;2022-07-29T07:47:34;21.00;99.90
20654;DHT22;21083;50.898;4.902;2022-07-29T07:50:02;21.20;99.90
20654;DHT22;21083;50.898;4.902;2022-07-29T07:52:29;21.40;99.90
20654;DHT22;21083;50.898;4.902;2022-07-29T07:54:57;21.50;99.90
20654;DHT22;21083;50.898;4.902;2022-07-29T07:57:24;21.80;99.90
20654;DHT22;21083;50.898;4.902;2022-07-29T07:59:51;21.90;99.90
20654;DHT22;21083;50.898;4.902;2022-07-29T08:02:18;22.00;99.90
20654;DHT22;21083;50.898;4.902;2022-07-29T08:04:45;22.10;99.90
20654;DHT22;21083;50.898;4.902;2022-07-29T08:07:12;22.20;99.90
20654;DHT22;21083;50.898;4.902;2022-07-29T08:09:40;22.20;99.90
20654;DHT22;21083;50.898;4.902;2022-07-29T08:12:08;22.30;99.90
20654;DHT22;21083;50.898;4.902;2022-07-29T08:14:35;22.50;99.90
20654;DHT22;21083;50.898;4.902;2022-07-29T08:17:02;22.60;99.90
20654;DHT22;21083;50.898;4.902;2022-07-29T08:19:29;22.60;99.90
20654;DHT22;21083;50.898;4.902;2022-07-29T08:21:56;22.80;99.90
20654;DHT22;21083;50.898;4.902;2022-07-29T08:24:23;22.70;99.90
20654;DHT22;21083;50.898;4.902;2022-07-29T08:27:09;22.90;99.90
20654;DHT22;21083;50.898;4.902;2022-07-29T08:29:37;23.10;99.90
20654;DHT22;21083;50.898;4.902;2022-07-29T08:32:04;23.30;99.90
20654;DHT22;21083;50.898;4.902;2022-07-29T08:34:32;23.30;99.90
20654;DHT22;21083;50.898;4.902;2022-07-29T08:36:59;23.20;99.90
20654;DHT22;21083;50.898;4.902;2022-07-29T08:39:26;23.40;99.90
20654;DHT22;21083;50.898;4.902;2022-07-29T08:41:53;23.10;99.90
20654;DHT22;21083;50.898;4.902;2022-07-29T08:44:21;23.20;99.90
20654;DHT22;21083;50.898;4.902;2022-07-29T08:46:49;23.40;99.90
20654;DHT22;21083;50.898;4.902;2022-07-29T08:49:16;23.60;99.90
20654;DHT22;21083;50.898;4.902;2022-07-29T08:51:43;23.70;99.90
20654;DHT22;21083;50.898;4.902;2022-07-29T08:54:11;23.90;99.90
20654;DHT22;21083;50.898;4.902;2022-07-29T08:56:43;24.10;99.90
20654;DHT22;21083;50.898;4.902;2022-07-29T08:59:11;24.20;99.90
20654;DHT22;21083;50.898;4.902;2022-07-29T09:01:43;24.20;99.90
20654;DHT22;21083;50.898;4.902;2022-07-29T09:04:12;24.30;99.90
20654;DHT22;21083;50.898;4.902;2022-07-29T09:06:43;24.50;99.90
20654;DHT22;21083;50.898;4.902;2022-07-29T09:09:11;24.80;99.90
20654;DHT22;21083;50.898;4.902;2022-07-29T09:11:39;25.00;99.90
20654;DHT22;21083;50.898;4.902;2022-07-29T09:14:06;25.00;99.90
20654;DHT22;21083;50.898;4.902;2022-07-29T09:16:52;25.30;99.90
20654;DHT22;21083;50.898;4.902;2022-07-29T09:19:24;25.40;99.90
20654;DHT22;21083;50.898;4.902;2022-07-29T09:21:51;25.50;99.90
20654;DHT22;21083;50.898;4.902;2022-07-29T09:24:24;25.60;99.90
20654;DHT22;21083;50.898;4.902;2022-07-29T09:26:51;25.80;99.90
20654;DHT22;21083;50.898;4.902;2022-07-29T09:29:22;25.90;99.90
20654;DHT22;21083;50.898;4.902;2022-07-29T09:31:52;26.00;99.90
20654;DHT22;21083;50.898;4.902;2022-07-29T09:34:22;26.00;99.90
20654;DHT22;21083;50.898;4.902;2022-07-29T09:36:52;26.30;99.90
20654;DHT22;21083;50.898;4.902;2022-07-29T09:39:29;26.30;99.90
20654;DHT22;21083;50.898;4.902;2022-07-29T09:41:57;26.30;99.90
20654;DHT22;21083;50.898;4.902;2022-07-29T09:44:25;26.30;99.90
20654;DHT22;21083;50.898;4.902;2022-07-29T09:46:56;26.50;99.90
20654;DHT22;21083;50.898;4.902;2022-07-29T09:49:23;26.80;99.90
20654;DHT22;21083;50.898;4.902;2022-07-29T09:52:00;26.90;99.90
20654;DHT22;21083;50.898;4.902;2022-07-29T09:54:27;27.00;99.90
20654;DHT22;21083;50.898;4.902;2022-07-29T09:57:00;27.20;99.90
20654;DHT22;21083;50.898;4.902;2022-07-29T09:59:27;27.30;99.90
20654;DHT22;21083;50.898;4.902;2022-07-29T10:01:55;27.40;99.90
20654;DHT22;21083;50.898;4.902;2022-07-29T10:04:22;27.60;99.90
20654;DHT22;21083;50.898;4.902;2022-07-29T10:06:57;27.70;99.90
20654;DHT22;21083;50.898;4.902;2022-07-29T10:09:25;27.70;99.90
20654;DHT22;21083;50.898;4.902;2022-07-29T10:12:06;27.70;99.90
20654;DHT22;21083;50.898;4.902;2022-07-29T10:14:33;27.80;99.90
20654;DHT22;21083;50.898;4.902;2022-07-29T10:17:03;27.90;99.90
20654;DHT22;21083;50.898;4.902;2022-07-29T10:19:31;27.90;99.90
20654;DHT22;21083;50.898;4.902;2022-07-29T10:21:59;28.20;99.90
20654;DHT22;21083;50.898;4.902;2022-07-29T10:24:27;27.80;99.90
20654;DHT22;21083;50.898;4.902;2022-07-29T10:26:55;27.90;99.90
20654;DHT22;21083;50.898;4.902;2022-07-29T10:29:22;28.20;99.90
20654;DHT22;21083;50.898;4.902;2022-07-29T10:31:58;28.20;99.90
20654;DHT22;21083;50.898;4.902;2022-07-29T10:34:36;28.30;99.90
20654;DHT22;21083;50.898;4.902;2022-07-29T10:37:18;28.60;99.90
20654;DHT22;21083;50.898;4.902;2022-07-29T10:39:55;28.70;99.90
20654;DHT22;21083;50.898;4.902;2022-07-29T10:42:27;28.70;99.90
20654;DHT22;21083;50.898;4.902;2022-07-29T10:44:56;28.70;99.90
20654;DHT22;21083;50.898;4.902;2022-07-29T10:47:24;28.90;99.90
20654;DHT22;21083;50.898;4.902;2022-07-29T10:49:57;29.20;99.90
20654;DHT22;21083;50.898;4.902;2022-07-29T10:52:25;29.30;99.90
20654;DHT22;21083;50.898;4.902;2022-07-29T10:55:30;29.40;99.90
20654;DHT22;21083;50.898;4.902;2022-07-29T10:58:11;29.50;99.90
20654;DHT22;21083;50.898;4.902;2022-07-29T11:00:39;29.60;99.90
20654;DHT22;21083;50.898;4.902;2022-07-29T11:03:06;29.80;99.90
20654;DHT22;21083;50.898;4.902;2022-07-29T11:05:58;30.00;99.90
20654;DHT22;21083;50.898;4.902;2022-07-29T11:08:25;30.00;99.90
20654;DHT22;21083;50.898;4.902;2022-07-29T11:13:59;30.20;99.90
20654;DHT22;21083;50.898;4.902;2022-07-29T11:16:26;30.40;99.90
20654;DHT22;21083;50.898;4.902;2022-07-29T11:19:20;30.40;99.90
20654;DHT22;21083;50.898;4.902;2022-07-29T11:21:48;30.70;99.90
20654;DHT22;21083;50.898;4.902;2022-07-29T11:24:19;30.20;99.90
20654;DHT22;21083;50.898;4.902;2022-07-29T11:27:07;30.20;99.90
20654;DHT22;21083;50.898;4.902;2022-07-29T11:29:36;30.30;99.90
20654;DHT22;21083;50.898;4.902;2022-07-29T11:32:10;30.30;99.90
20654;DHT22;21083;50.898;4.902;2022-07-29T11:34:37;30.20;99.90
20654;DHT22;21083;50.898;4.902;2022-07-29T11:37:19;30.10;99.90
20654;DHT22;21083;50.898;4.902;2022-07-29T11:42:49;31.00;99.90
20654;DHT22;21083;50.898;4.902;2022-07-29T11:45:24;31.20;99.90
20654;DHT22;21083;50.898;4.902;2022-07-29T11:47:58;31.20;99.90
20654;DHT22;21083;50.898;4.902;2022-07-29T11:50:31;31.20;99.90
20654;DHT22;21083;50.898;4.902;2022-07-29T11:53:00;31.40;99.90
20654;DHT22;21083;50.898;4.902;2022-07-29T11:55:27;31.70;99.90
20654;DHT22;21083;50.898;4.902;2022-07-29T11:57:58;32.10;99.90
20654;DHT22;21083;50.898;4.902;2022-07-29T12:00:30;32.40;99.90
20654;DHT22;21083;50.898;4.902;2022-07-29T12:02:59;31.30;99.90
20654;DHT22;21083;50.898;4.902;2022-07-29T12:05:35;31.00;99.90
20654;DHT22;21083;50.898;4.902;2022-07-29T12:08:12;30.80;99.90
20654;DHT22;21083;50.898;4.902;2022-07-29T12:10:40;30.50;99.90
20654;DHT22;21083;50.898;4.902;2022-07-29T12:13:08;29.80;99.90
20654;DHT22;21083;50.898;4.902;2022-07-29T12:15:36;29.80;99.90
20654;DHT22;21083;50.898;4.902;2022-07-29T12:18:13;30.00;99.90
20654;DHT22;21083;50.898;4.902;2022-07-29T12:20:41;30.60;99.90
20654;DHT22;21083;50.898;4.902;2022-07-29T12:23:11;31.20;99.90
20654;DHT22;21083;50.898;4.902;2022-07-29T12:25:40;31.40;99.90
20654;DHT22;21083;50.898;4.902;2022-07-29T12:28:10;31.60;99.90
20654;DHT22;21083;50.898;4.902;2022-07-29T12:30:42;31.60;99.90
20654;DHT22;21083;50.898;4.902;2022-07-29T12:33:14;31.50;99.90
20654;DHT22;21083;50.898;4.902;2022-07-29T12:35:44;31.50;99.90
20654;DHT22;21083;50.898;4.902;2022-07-29T12:38:13;31.10;99.90
20654;DHT22;21083;50.898;4.902;2022-07-29T12:40:40;31.30;99.90
20654;DHT22;21083;50.898;4.902;2022-07-29T12:43:09;31.80;99.90
20654;DHT22;21083;50.898;4.902;2022-07-29T12:45:36;32.20;99.90
20654;DHT22;21083;50.898;4.902;2022-07-29T12:48:04;32.60;99.90
20654;DHT22;21083;50.898;4.902;2022-07-29T12:50:34;32.60;99.90
20654;DHT22;21083;50.898;4.902;2022-07-29T12:53:12;32.80;99.90
20654;DHT22;21083;50.898;4.902;2022-07-29T12:55:43;32.60;99.90
20654;DHT22;21083;50.898;4.902;2022-07-29T12:58:14;32.80;99.90
20654;DHT22;21083;50.898;4.902;2022-07-29T13:00:41;32.60;99.90
20654;DHT22;21083;50.898;4.902;2022-07-29T13:03:08;32.70;99.90
20654;DHT22;21083;50.898;4.902;2022-07-29T13:05:42;32.90;99.90
20654;DHT22;21083;50.898;4.902;2022-07-29T13:08:12;33.10;99.90
20654;DHT22;21083;50.898;4.902;2022-07-29T13:10:39;33.40;99.90
20654;DHT22;21083;50.898;4.902;2022-07-29T13:13:08;33.80;99.90
20654;DHT22;21083;50.898;4.902;2022-07-29T13:15:36;33.80;99.90
20654;DHT22;21083;50.898;4.902;2022-07-29T13:18:04;33.20;99.90
20654;DHT22;21083;50.898;4.902;2022-07-29T13:20:31;33.10;99.90
20654;DHT22;21083;50.898;4.902;2022-07-29T13:22:59;32.70;99.90
20654;DHT22;21083;50.898;4.902;2022-07-29T13:25:29;32.30;99.90
20654;DHT22;21083;50.898;4.902;2022-07-29T13:27:57;32.60;99.90
20654;DHT22;21083;50.898;4.902;2022-07-29T13:30:25;31.90;99.90
20654;DHT22;21083;50.898;4.902;2022-07-29T13:32:52;31.10;99.90
20654;DHT22;21083;50.898;4.902;2022-07-29T13:35:20;31.60;99.90
20654;DHT22;21083;50.898;4.902;2022-07-29T13:37:47;31.60;99.90
20654;DHT22;21083;50.898;4.902;2022-07-29T13:40:14;31.90;99.90
20654;DHT22;21083;50.898;4.902;2022-07-29T13:42:42;32.00;99.90
20654;DHT22;21083;50.898;4.902;2022-07-29T13:45:10;32.20;99.90
20654;DHT22;21083;50.898;4.902;2022-07-29T13:47:38;32.00;99.90
20654;DHT22;21083;50.898;4.902;2022-07-29T13:50:07;31.60;99.90
20654;DHT22;21083;50.898;4.902;2022-07-29T13:52:37;31.20;99.90
20654;DHT22;21083;50.898;4.902;2022-07-29T13:55:05;30.60;99.90
20654;DHT22;21083;50.898;4.902;2022-07-29T13:57:33;29.90;99.90
20654;DHT22;21083;50.898;4.902;2022-07-29T14:00:02;29.60;99.90
20654;DHT22;21083;50.898;4.902;2022-07-29T14:02:29;30.00;99.90
20654;DHT22;21083;50.898;4.902;2022-07-29T14:04:56;30.50;99.90
20654;DHT22;21083;50.898;4.902;2022-07-29T14:07:23;30.90;99.90
20654;DHT22;21083;50.898;4.902;2022-07-29T14:09:50;31.00;99.90
20654;DHT22;21083;50.898;4.902;2022-07-29T14:12:18;31.20;99.90
20654;DHT22;21083;50.898;4.902;2022-07-29T14:14:45;31.30;99.90
20654;DHT22;21083;50.898;4.902;2022-07-29T14:17:13;30.40;99.90
20654;DHT22;21083;50.898;4.902;2022-07-29T14:19:40;30.50;99.90
20654;DHT22;21083;50.898;4.902;2022-07-29T14:22:08;30.50;99.90
20654;DHT22;21083;50.898;4.902;2022-07-29T14:24:36;30.50;99.90
20654;DHT22;21083;50.898;4.902;2022-07-29T14:27:03;30.70;99.90
20654;DHT22;21083;50.898;4.902;2022-07-29T14:29:30;30.70;99.90
20654;DHT22;21083;50.898;4.902;2022-07-29T14:31:57;30.90;99.90
20654;DHT22;21083;50.898;4.902;2022-07-29T14:34:25;31.20;99.90
20654;DHT22;21083;50.898;4.902;2022-07-29T14:36:52;31.00;99.90
20654;DHT22;21083;50.898;4.902;2022-07-29T14:39:21;30.70;99.90
20654;DHT22;21083;50.898;4.902;2022-07-29T14:41:48;30.70;99.90
20654;DHT22;21083;50.898;4.902;2022-07-29T14:44:16;30.30;99.90
20654;DHT22;21083;50.898;4.902;2022-07-29T14:46:43;30.30;99.90
20654;DHT22;21083;50.898;4.902;2022-07-29T14:49:10;30.40;99.90
20654;DHT22;21083;50.898;4.902;2022-07-29T14:51:38;30.30;99.90
20654;DHT22;21083;50.898;4.902;2022-07-29T14:54:05;29.80;99.90
20654;DHT22;21083;50.898;4.902;2022-07-29T14:56:32;29.80;99.90
20654;DHT22;21083;50.898;4.902;2022-07-29T14:58:59;29.90;99.90
20654;DHT22;21083;50.898;4.902;2022-07-29T15:01:26;29.90;99.90
20654;DHT22;21083;50.898;4.902;2022-07-29T15:03:53;29.90;99.90
20654;DHT22;21083;50.898;4.902;2022-07-29T15:06:20;29.80;99.90
20654;DHT22;21083;50.898;4.902;2022-07-29T15:08:49;29.90;99.90
20654;DHT22;21083;50.898;4.902;2022-07-29T15:11:16;29.70;99.90
20654;DHT22;21083;50.898;4.902;2022-07-29T15:13:43;29.50;99.90
20654;DHT22;21083;50.898;4.902;2022-07-29T15:16:10;29.30;99.90
20654;DHT22;21083;50.898;4.902;2022-07-29T15:18:37;29.40;99.90
20654;DHT22;21083;50.898;4.902;2022-07-29T15:21:04;29.40;99.90
20654;DHT22;21083;50.898;4.902;2022-07-29T15:23:32;29.30;99.90
20654;DHT22;21083;50.898;4.902;2022-07-29T15:26:02;29.30;99.90
20654;DHT22;21083;50.898;4.902;2022-07-29T15:28:30;28.80;99.90
20654;DHT22;21083;50.898;4.902;2022-07-29T15:30:57;28.60;99.90
20654;DHT22;21083;50.898;4.902;2022-07-29T15:33:24;28.70;99.90
20654;DHT22;21083;50.898;4.902;2022-07-29T15:35:51;28.90;99.90
20654;DHT22;21083;50.898;4.902;2022-07-29T15:38:18;28.70;99.90
20654;DHT22;21083;50.898;4.902;2022-07-29T15:40:45;28.60;99.90
20654;DHT22;21083;50.898;4.902;2022-07-29T15:43:13;28.90;99.90
20654;DHT22;21083;50.898;4.902;2022-07-29T15:45:41;28.90;99.90
20654;DHT22;21083;50.898;4.902;2022-07-29T15:48:28;29.20;99.90